sensor_id;sensor_type;location;lat;lon;timestamp;temperature;humidity
71088;SHT31;58747;50.674;4.616;2022-09-16T00:01:13;13.25;87.23
71088;SHT31;58747;50.674;4.616;2022-09-16T00:03:39;13.25;87.36
71088;SHT31;58747;50.674;4.616;2022-09-16T00:06:05;13.20;87.61
71088;SHT31;58747;50.674;4.616;2022-09-16T00:08:31;13.25;88.51
71088;SHT31;58747;50.674;4.616;2022-09-16T00:11:00;13.27;87.60
71088;SHT31;58747;50.674;4.616;2022-09-16T00:13:26;13.29;87.58
71088;SHT31;58747;50.674;4.616;2022-09-16T00:15:52;13.30;87.40
71088;SHT31;58747;50.674;4.616;2022-09-16T00:18:18;13.35;87.56
71088;SHT31;58747;50.674;4.616;2022-09-16T00:20:46;13.32;87.58
71088;SHT31;58747;50.674;4.616;2022-09-16T00:23:11;13.35;86.40
71088;SHT31;58747;50.674;4.616;2022-09-16T00:25:37;13.38;86.88
71088;SHT31;58747;50.674;4.616;2022-09-16T00:28:02;13.36;86.07
71088;SHT31;58747;50.674;4.616;2022-09-16T00:30:28;13.38;85.62
71088;SHT31;58747;50.674;4.616;2022-09-16T00:32:53;13.36;86.19
71088;SHT31;58747;50.674;4.616;2022-09-16T00:35:18;13.35;85.90
71088;SHT31;58747;50.674;4.616;2022-09-16T00:37:44;13.38;86.25
71088;SHT31;58747;50.674;4.616;2022-09-16T00:40:09;13.33;85.45
71088;SHT31;58747;50.674;4.616;2022-09-16T00:42:39;13.32;85.88
71088;SHT31;58747;50.674;4.616;2022-09-16T00:45:23;13.36;84.72
71088;SHT31;58747;50.674;4.616;2022-09-16T00:47:52;13.33;85.67
71088;SHT31;58747;50.674;4.616;2022-09-16T00:50:40;13.30;85.35
71088;SHT31;58747;50.674;4.616;2022-09-16T00:53:11;13.25;85.97
71088;SHT31;58747;50.674;4.616;2022-09-16T00:55:37;13.22;85.92
71088;SHT31;58747;50.674;4.616;2022-09-16T00:58:13;13.18;86.27
71088;SHT31;58747;50.674;4.616;2022-09-16T01:00:39;13.12;85.82
71088;SHT31;58747;50.674;4.616;2022-09-16T01:03:05;13.13;85.89
71088;SHT31;58747;50.674;4.616;2022-09-16T01:05:31;13.15;85.81
71088;SHT31;58747;50.674;4.616;2022-09-16T01:07:56;13.16;86.56
71088;SHT31;58747;50.674;4.616;2022-09-16T01:10:24;13.19;86.23
71088;SHT31;58747;50.674;4.616;2022-09-16T01:12:54;13.15;86.28
71088;SHT31;58747;50.674;4.616;2022-09-16T01:15:27;13.16;86.47
71088;SHT31;58747;50.674;4.616;2022-09-16T01:31:42;12.96;86.56
71088;SHT31;58747;50.674;4.616;2022-09-16T01:39:42;12.92;86.91
71088;SHT31;58747;50.674;4.616;2022-09-16T01:42:37;12.87;86.56
71088;SHT31;58747;50.674;4.616;2022-09-16T01:50:46;12.77;87.29
71088;SHT31;58747;50.674;4.616;2022-09-16T01:53:29;12.71;87.24
71088;SHT31;58747;50.674;4.616;2022-09-16T01:56:08;12.64;87.59
71088;SHT31;58747;50.674;4.616;2022-09-16T01:58:46;12.61;87.64
71088;SHT31;58747;50.674;4.616;2022-09-16T02:01:24;12.61;87.58
71088;SHT31;58747;50.674;4.616;2022-09-16T02:03:57;12.57;87.69
71088;SHT31;58747;50.674;4.616;2022-09-16T02:06:25;12.53;87.38
71088;SHT31;58747;50.674;4.616;2022-09-16T02:08:54;12.48;87.35
71088;SHT31;58747;50.674;4.616;2022-09-16T02:11:22;12.50;87.46
71088;SHT31;58747;50.674;4.616;2022-09-16T02:14:05;12.46;87.13
71088;SHT31;58747;50.674;4.616;2022-09-16T02:16:56;12.44;87.49
71088;SHT31;58747;50.674;4.616;2022-09-16T02:19:43;12.40;87.82
71088;SHT31;58747;50.674;4.616;2022-09-16T02:22:24;12.37;87.78
71088;SHT31;58747;50.674;4.616;2022-09-16T02:24:51;12.33;87.36
71088;SHT31;58747;50.674;4.616;2022-09-16T02:27:18;12.33;88.18
71088;SHT31;58747;50.674;4.616;2022-09-16T02:29:49;12.26;87.98
71088;SHT31;58747;50.674;4.616;2022-09-16T02:32:18;12.23;87.42
71088;SHT31;58747;50.674;4.616;2022-09-16T02:34:46;12.22;87.81
71088;SHT31;58747;50.674;4.616;2022-09-16T02:37:17;12.22;87.62
71088;SHT31;58747;50.674;4.616;2022-09-16T02:39:47;12.19;87.55
71088;SHT31;58747;50.674;4.616;2022-09-16T02:42:14;12.15;87.55
71088;SHT31;58747;50.674;4.616;2022-09-16T02:44:40;12.16;87.89
71088;SHT31;58747;50.674;4.616;2022-09-16T02:47:29;12.17;87.82
71088;SHT31;58747;50.674;4.616;2022-09-16T02:50:12;12.22;88.11
71088;SHT31;58747;50.674;4.616;2022-09-16T02:52:44;12.22;87.73
71088;SHT31;58747;50.674;4.616;2022-09-16T02:55:24;12.23;87.38
71088;SHT31;58747;50.674;4.616;2022-09-16T02:57:52;12.29;87.47
71088;SHT31;58747;50.674;4.616;2022-09-16T03:00:18;12.23;87.49
71088;SHT31;58747;50.674;4.616;2022-09-16T03:02:44;12.25;86.79
71088;SHT31;58747;50.674;4.616;2022-09-16T03:05:10;12.25;87.15
71088;SHT31;58747;50.674;4.616;2022-09-16T03:07:36;12.26;87.31
71088;SHT31;58747;50.674;4.616;2022-09-16T03:10:02;12.22;87.05
71088;SHT31;58747;50.674;4.616;2022-09-16T03:17:52;12.05;86.75
71088;SHT31;58747;50.674;4.616;2022-09-16T03:20:29;12.09;86.75
71088;SHT31;58747;50.674;4.616;2022-09-16T03:23:03;12.10;87.14
71088;SHT31;58747;50.674;4.616;2022-09-16T03:28:34;12.09;87.29
71088;SHT31;58747;50.674;4.616;2022-09-16T03:31:09;12.05;86.48
71088;SHT31;58747;50.674;4.616;2022-09-16T03:33:44;12.06;86.77
71088;SHT31;58747;50.674;4.616;2022-09-16T03:36:14;12.06;86.08
71088;SHT31;58747;50.674;4.616;2022-09-16T03:38:41;12.07;86.83
71088;SHT31;58747;50.674;4.616;2022-09-16T03:41:08;12.12;86.48
71088;SHT31;58747;50.674;4.616;2022-09-16T03:43:34;12.16;86.16
71088;SHT31;58747;50.674;4.616;2022-09-16T03:45:59;12.17;86.70
71088;SHT31;58747;50.674;4.616;2022-09-16T03:48:25;12.19;85.27
71088;SHT31;58747;50.674;4.616;2022-09-16T03:50:50;12.20;85.04
71088;SHT31;58747;50.674;4.616;2022-09-16T03:53:15;12.25;85.45
71088;SHT31;58747;50.674;4.616;2022-09-16T03:55:41;12.26;85.76
71088;SHT31;58747;50.674;4.616;2022-09-16T03:58:07;12.29;85.32
71088;SHT31;58747;50.674;4.616;2022-09-16T04:00:32;12.25;85.92
71088;SHT31;58747;50.674;4.616;2022-09-16T04:02:58;12.25;86.50
71088;SHT31;58747;50.674;4.616;2022-09-16T04:05:24;12.17;86.73
71088;SHT31;58747;50.674;4.616;2022-09-16T04:07:50;12.10;87.79
71088;SHT31;58747;50.674;4.616;2022-09-16T04:10:16;12.09;87.73
71088;SHT31;58747;50.674;4.616;2022-09-16T04:12:41;12.06;88.53
71088;SHT31;58747;50.674;4.616;2022-09-16T04:15:06;12.03;88.53
71088;SHT31;58747;50.674;4.616;2022-09-16T04:17:33;12.00;88.24
71088;SHT31;58747;50.674;4.616;2022-09-16T04:19:58;11.96;88.51
71088;SHT31;58747;50.674;4.616;2022-09-16T04:22:27;11.96;89.07
71088;SHT31;58747;50.674;4.616;2022-09-16T04:24:53;11.88;88.73
71088;SHT31;58747;50.674;4.616;2022-09-16T04:27:19;11.81;88.67
71088;SHT31;58747;50.674;4.616;2022-09-16T04:29:44;11.75;88.98
71088;SHT31;58747;50.674;4.616;2022-09-16T04:32:09;11.68;89.00
71088;SHT31;58747;50.674;4.616;2022-09-16T04:34:35;11.59;89.00
71088;SHT31;58747;50.674;4.616;2022-09-16T04:37:00;11.55;88.98
71088;SHT31;58747;50.674;4.616;2022-09-16T04:39:26;11.51;89.46
71088;SHT31;58747;50.674;4.616;2022-09-16T04:41:51;11.51;89.66
71088;SHT31;58747;50.674;4.616;2022-09-16T04:44:16;12.06;93.56
71088;SHT31;58747;50.674;4.616;2022-09-16T04:46:42;12.09;89.41
71088;SHT31;58747;50.674;4.616;2022-09-16T04:49:07;11.99;88.27
71088;SHT31;58747;50.674;4.616;2022-09-16T04:51:33;11.89;88.10
71088;SHT31;58747;50.674;4.616;2022-09-16T04:53:59;11.81;88.19
71088;SHT31;58747;50.674;4.616;2022-09-16T04:56:29;11.74;88.42
71088;SHT31;58747;50.674;4.616;2022-09-16T04:58:58;11.65;88.05
71088;SHT31;58747;50.674;4.616;2022-09-16T05:01:26;11.64;87.89
71088;SHT31;58747;50.674;4.616;2022-09-16T05:03:54;11.62;87.57
71088;SHT31;58747;50.674;4.616;2022-09-16T05:06:22;11.57;88.08
71088;SHT31;58747;50.674;4.616;2022-09-16T05:08:48;11.54;88.62
71088;SHT31;58747;50.674;4.616;2022-09-16T05:11:19;11.51;87.67
71088;SHT31;58747;50.674;4.616;2022-09-16T05:13:45;11.47;87.68
71088;SHT31;58747;50.674;4.616;2022-09-16T05:16:12;11.48;87.91
71088;SHT31;58747;50.674;4.616;2022-09-16T05:18:39;11.52;87.89
71088;SHT31;58747;50.674;4.616;2022-09-16T05:21:08;11.55;87.14
71088;SHT31;58747;50.674;4.616;2022-09-16T05:23:34;11.86;91.93
71088;SHT31;58747;50.674;4.616;2022-09-16T05:26:05;11.92;87.50
71088;SHT31;58747;50.674;4.616;2022-09-16T05:28:31;11.86;87.23
71088;SHT31;58747;50.674;4.616;2022-09-16T05:31:28;11.81;86.83
71088;SHT31;58747;50.674;4.616;2022-09-16T05:34:01;11.78;86.41
71088;SHT31;58747;50.674;4.616;2022-09-16T05:36:29;11.71;86.41
71088;SHT31;58747;50.674;4.616;2022-09-16T05:38:55;11.69;85.76
71088;SHT31;58747;50.674;4.616;2022-09-16T05:41:21;11.71;85.86
71088;SHT31;58747;50.674;4.616;2022-09-16T05:43:46;11.75;85.14
71088;SHT31;58747;50.674;4.616;2022-09-16T05:46:19;11.72;84.65
71088;SHT31;58747;50.674;4.616;2022-09-16T05:48:45;11.69;85.03
71088;SHT31;58747;50.674;4.616;2022-09-16T05:51:14;11.75;84.25
71088;SHT31;58747;50.674;4.616;2022-09-16T05:53:40;11.75;84.65
71088;SHT31;58747;50.674;4.616;2022-09-16T05:56:08;11.79;84.58
71088;SHT31;58747;50.674;4.616;2022-09-16T05:58:34;11.83;85.21
71088;SHT31;58747;50.674;4.616;2022-09-16T06:01:07;11.83;85.97
71088;SHT31;58747;50.674;4.616;2022-09-16T06:03:34;11.86;84.20
71088;SHT31;58747;50.674;4.616;2022-09-16T06:06:02;11.89;84.21
71088;SHT31;58747;50.674;4.616;2022-09-16T06:08:29;11.90;85.99
71088;SHT31;58747;50.674;4.616;2022-09-16T06:10:55;11.93;85.65
71088;SHT31;58747;50.674;4.616;2022-09-16T06:13:20;11.98;84.11
71088;SHT31;58747;50.674;4.616;2022-09-16T06:15:50;12.00;84.35
71088;SHT31;58747;50.674;4.616;2022-09-16T06:18:16;12.03;84.30
71088;SHT31;58747;50.674;4.616;2022-09-16T06:20:43;12.03;84.24
71088;SHT31;58747;50.674;4.616;2022-09-16T06:23:09;12.06;83.44
71088;SHT31;58747;50.674;4.616;2022-09-16T06:25:35;12.09;83.20
71088;SHT31;58747;50.674;4.616;2022-09-16T06:28:00;12.12;83.38
71088;SHT31;58747;50.674;4.616;2022-09-16T06:30:26;12.15;83.66
71088;SHT31;58747;50.674;4.616;2022-09-16T06:32:51;12.22;84.09
71088;SHT31;58747;50.674;4.616;2022-09-16T06:35:16;12.25;83.13
71088;SHT31;58747;50.674;4.616;2022-09-16T06:37:42;12.29;83.38
71088;SHT31;58747;50.674;4.616;2022-09-16T06:40:07;12.37;83.72
71088;SHT31;58747;50.674;4.616;2022-09-16T06:42:33;12.32;82.55
71088;SHT31;58747;50.674;4.616;2022-09-16T06:44:58;12.33;83.22
71088;SHT31;58747;50.674;4.616;2022-09-16T06:47:24;12.34;84.01
71088;SHT31;58747;50.674;4.616;2022-09-16T06:49:49;12.37;82.90
71088;SHT31;58747;50.674;4.616;2022-09-16T06:52:14;12.88;86.03
71088;SHT31;58747;50.674;4.616;2022-09-16T06:54:40;12.87;82.13
71088;SHT31;58747;50.674;4.616;2022-09-16T06:57:06;12.67;82.90
71088;SHT31;58747;50.674;4.616;2022-09-16T06:59:31;12.61;83.88
71088;SHT31;58747;50.674;4.616;2022-09-16T07:01:56;12.51;83.81
71088;SHT31;58747;50.674;4.616;2022-09-16T07:04:21;12.44;84.03
71088;SHT31;58747;50.674;4.616;2022-09-16T07:06:47;12.43;84.45
71088;SHT31;58747;50.674;4.616;2022-09-16T07:09:14;12.50;85.26
71088;SHT31;58747;50.674;4.616;2022-09-16T07:11:39;12.47;84.42
71088;SHT31;58747;50.674;4.616;2022-09-16T07:14:04;12.51;84.42
71088;SHT31;58747;50.674;4.616;2022-09-16T07:16:30;12.54;83.70
71088;SHT31;58747;50.674;4.616;2022-09-16T07:18:57;12.57;85.63
71088;SHT31;58747;50.674;4.616;2022-09-16T07:21:24;12.57;84.63
71088;SHT31;58747;50.674;4.616;2022-09-16T07:23:54;12.64;85.02
71088;SHT31;58747;50.674;4.616;2022-09-16T07:26:22;12.77;84.58
71088;SHT31;58747;50.674;4.616;2022-09-16T07:28:51;12.68;83.32
71088;SHT31;58747;50.674;4.616;2022-09-16T07:31:19;12.68;83.82
71088;SHT31;58747;50.674;4.616;2022-09-16T07:33:47;12.68;84.92
71088;SHT31;58747;50.674;4.616;2022-09-16T07:36:15;12.54;86.50
71088;SHT31;58747;50.674;4.616;2022-09-16T07:38:41;12.30;87.54
71088;SHT31;58747;50.674;4.616;2022-09-16T07:41:14;12.02;89.13
71088;SHT31;58747;50.674;4.616;2022-09-16T07:43:40;11.92;89.58
71088;SHT31;58747;50.674;4.616;2022-09-16T07:46:08;11.92;89.97
71088;SHT31;58747;50.674;4.616;2022-09-16T07:48:34;11.99;90.45
71088;SHT31;58747;50.674;4.616;2022-09-16T07:51:05;12.10;90.85
71088;SHT31;58747;50.674;4.616;2022-09-16T07:53:31;12.13;91.17
71088;SHT31;58747;50.674;4.616;2022-09-16T07:56:02;12.25;90.82
71088;SHT31;58747;50.674;4.616;2022-09-16T07:58:27;12.36;90.54
71088;SHT31;58747;50.674;4.616;2022-09-16T08:00:53;12.37;90.97
71088;SHT31;58747;50.674;4.616;2022-09-16T08:03:18;12.43;91.00
71088;SHT31;58747;50.674;4.616;2022-09-16T08:05:43;12.40;90.53
71088;SHT31;58747;50.674;4.616;2022-09-16T08:08:09;12.38;91.03
71088;SHT31;58747;50.674;4.616;2022-09-16T08:10:34;12.34;91.04
71088;SHT31;58747;50.674;4.616;2022-09-16T08:13:02;12.29;91.43
71088;SHT31;58747;50.674;4.616;2022-09-16T08:15:27;12.32;91.33
71088;SHT31;58747;50.674;4.616;2022-09-16T08:17:53;12.36;91.42
71088;SHT31;58747;50.674;4.616;2022-09-16T08:20:18;12.37;91.27
71088;SHT31;58747;50.674;4.616;2022-09-16T08:22:44;12.43;91.04
71088;SHT31;58747;50.674;4.616;2022-09-16T08:25:09;12.63;90.50
71088;SHT31;58747;50.674;4.616;2022-09-16T08:27:35;12.68;90.72
71088;SHT31;58747;50.674;4.616;2022-09-16T08:30:01;12.69;90.66
71088;SHT31;58747;50.674;4.616;2022-09-16T08:32:26;12.73;89.72
71088;SHT31;58747;50.674;4.616;2022-09-16T08:34:51;12.77;89.33
71088;SHT31;58747;50.674;4.616;2022-09-16T08:37:18;13.08;88.92
71088;SHT31;58747;50.674;4.616;2022-09-16T08:39:43;13.01;88.23
71088;SHT31;58747;50.674;4.616;2022-09-16T08:48:04;13.15;87.89
71088;SHT31;58747;50.674;4.616;2022-09-16T08:50:40;13.16;87.43
71088;SHT31;58747;50.674;4.616;2022-09-16T08:56:21;13.59;86.68
71088;SHT31;58747;50.674;4.616;2022-09-16T08:58:54;13.62;85.93
71088;SHT31;58747;50.674;4.616;2022-09-16T09:01:43;13.53;84.74
71088;SHT31;58747;50.674;4.616;2022-09-16T09:04:11;13.54;85.38
71088;SHT31;58747;50.674;4.616;2022-09-16T09:07:39;13.56;85.89
71088;SHT31;58747;50.674;4.616;2022-09-16T09:10:02;13.46;85.30
71088;SHT31;58747;50.674;4.616;2022-09-16T09:12:32;13.49;86.14
71088;SHT31;58747;50.674;4.616;2022-09-16T09:23:22;13.22;88.47
71088;SHT31;58747;50.674;4.616;2022-09-16T09:28:32;13.04;86.59
71088;SHT31;58747;50.674;4.616;2022-09-16T09:34:07;13.12;89.82
71088;SHT31;58747;50.674;4.616;2022-09-16T09:39:43;13.32;88.40
71088;SHT31;58747;50.674;4.616;2022-09-16T09:42:20;13.54;88.81
71088;SHT31;58747;50.674;4.616;2022-09-16T09:45:02;13.64;88.46
71088;SHT31;58747;50.674;4.616;2022-09-16T09:47:42;13.66;88.82
71088;SHT31;58747;50.674;4.616;2022-09-16T09:50:29;13.75;89.48
71088;SHT31;58747;50.674;4.616;2022-09-16T09:55:35;13.62;85.68
71088;SHT31;58747;50.674;4.616;2022-09-16T09:58:08;13.80;87.99
71088;SHT31;58747;50.674;4.616;2022-09-16T10:00:38;14.25;85.76
71088;SHT31;58747;50.674;4.616;2022-09-16T10:03:12;14.39;83.81
71088;SHT31;58747;50.674;4.616;2022-09-16T10:05:39;14.69;81.25
71088;SHT31;58747;50.674;4.616;2022-09-16T10:10:54;14.87;80.96
71088;SHT31;58747;50.674;4.616;2022-09-16T10:13:21;15.21;81.46
71088;SHT31;58747;50.674;4.616;2022-09-16T10:15:47;15.34;80.76
71088;SHT31;58747;50.674;4.616;2022-09-16T10:21:12;15.41;79.31
71088;SHT31;58747;50.674;4.616;2022-09-16T10:23:38;15.47;80.53
71088;SHT31;58747;50.674;4.616;2022-09-16T10:28:38;15.95;77.47
71088;SHT31;58747;50.674;4.616;2022-09-16T10:31:06;16.27;74.14
71088;SHT31;58747;50.674;4.616;2022-09-16T10:33:34;16.40;75.23
71088;SHT31;58747;50.674;4.616;2022-09-16T10:36:09;16.50;69.77
71088;SHT31;58747;50.674;4.616;2022-09-16T10:38:43;16.38;72.21
71088;SHT31;58747;50.674;4.616;2022-09-16T10:41:19;16.63;74.35
71088;SHT31;58747;50.674;4.616;2022-09-16T10:43:53;16.79;70.58
71088;SHT31;58747;50.674;4.616;2022-09-16T10:46:20;17.12;71.08
71088;SHT31;58747;50.674;4.616;2022-09-16T10:48:47;17.34;67.01
71088;SHT31;58747;50.674;4.616;2022-09-16T10:51:30;17.81;69.63
71088;SHT31;58747;50.674;4.616;2022-09-16T10:54:00;17.80;67.63
71088;SHT31;58747;50.674;4.616;2022-09-16T10:56:34;17.24;66.38
71088;SHT31;58747;50.674;4.616;2022-09-16T10:59:11;16.65;68.27
71088;SHT31;58747;50.674;4.616;2022-09-16T11:18:23;13.74;81.41
71088;SHT31;58747;50.674;4.616;2022-09-16T11:21:01;13.50;81.38
71088;SHT31;58747;50.674;4.616;2022-09-16T11:32:16;15.03;78.94
71088;SHT31;58747;50.674;4.616;2022-09-16T11:38:14;15.96;74.20
71088;SHT31;58747;50.674;4.616;2022-09-16T11:43:29;15.99;73.20
71088;SHT31;58747;50.674;4.616;2022-09-16T11:46:38;16.31;73.74
71088;SHT31;58747;50.674;4.616;2022-09-16T11:49:43;17.30;71.65
71088;SHT31;58747;50.674;4.616;2022-09-16T11:57:55;17.13;68.97
71088;SHT31;58747;50.674;4.616;2022-09-16T12:00:22;16.44;72.04
71088;SHT31;58747;50.674;4.616;2022-09-16T12:05:45;15.30;76.25
71088;SHT31;58747;50.674;4.616;2022-09-16T12:08:38;14.90;76.67
71088;SHT31;58747;50.674;4.616;2022-09-16T12:11:13;14.63;79.99
71088;SHT31;58747;50.674;4.616;2022-09-16T12:13:50;14.24;82.40
71088;SHT31;58747;50.674;4.616;2022-09-16T12:16:30;13.85;80.28
71088;SHT31;58747;50.674;4.616;2022-09-16T12:19:02;13.63;82.44
71088;SHT31;58747;50.674;4.616;2022-09-16T12:21:40;13.49;84.16
71088;SHT31;58747;50.674;4.616;2022-09-16T12:24:55;13.35;82.55
71088;SHT31;58747;50.674;4.616;2022-09-16T12:27:06;13.25;82.24
71088;SHT31;58747;50.674;4.616;2022-09-16T12:29:46;13.13;83.09
71088;SHT31;58747;50.674;4.616;2022-09-16T12:32:44;12.85;84.66
71088;SHT31;58747;50.674;4.616;2022-09-16T12:35:15;12.60;85.86
71088;SHT31;58747;50.674;4.616;2022-09-16T12:37:49;12.51;88.77
71088;SHT31;58747;50.674;4.616;2022-09-16T12:41:09;12.37;88.70
71088;SHT31;58747;50.674;4.616;2022-09-16T12:51:21;12.74;87.27
71088;SHT31;58747;50.674;4.616;2022-09-16T13:02:44;13.29;85.72
71088;SHT31;58747;50.674;4.616;2022-09-16T13:07:48;13.26;84.89
71088;SHT31;58747;50.674;4.616;2022-09-16T13:10:18;13.35;87.04
71088;SHT31;58747;50.674;4.616;2022-09-16T13:12:55;13.30;85.43
71088;SHT31;58747;50.674;4.616;2022-09-16T13:15:35;13.43;87.33
71088;SHT31;58747;50.674;4.616;2022-09-16T13:20:49;13.56;84.48
71088;SHT31;58747;50.674;4.616;2022-09-16T13:23:22;13.71;85.16
71088;SHT31;58747;50.674;4.616;2022-09-16T13:25:58;13.87;82.64
71088;SHT31;58747;50.674;4.616;2022-09-16T13:28:37;14.07;83.03
71088;SHT31;58747;50.674;4.616;2022-09-16T13:33:42;14.36;81.39
71088;SHT31;58747;50.674;4.616;2022-09-16T13:38:49;14.50;80.43
71088;SHT31;58747;50.674;4.616;2022-09-16T13:41:41;14.46;80.68
71088;SHT31;58747;50.674;4.616;2022-09-16T13:44:27;14.49;80.38
71088;SHT31;58747;50.674;4.616;2022-09-16T13:46:52;14.42;79.60
71088;SHT31;58747;50.674;4.616;2022-09-16T13:49:22;14.24;79.45
71088;SHT31;58747;50.674;4.616;2022-09-16T13:51:50;14.04;79.02
71088;SHT31;58747;50.674;4.616;2022-09-16T13:54:28;13.97;79.76
71088;SHT31;58747;50.674;4.616;2022-09-16T13:57:15;14.02;80.83
71088;SHT31;58747;50.674;4.616;2022-09-16T14:00:05;13.94;82.32
71088;SHT31;58747;50.674;4.616;2022-09-16T14:13:15;13.66;84.38
71088;SHT31;58747;50.674;4.616;2022-09-16T14:15:44;13.32;86.27
71088;SHT31;58747;50.674;4.616;2022-09-16T14:18:13;12.80;83.01
71088;SHT31;58747;50.674;4.616;2022-09-16T14:20:59;12.48;86.68
71088;SHT31;58747;50.674;4.616;2022-09-16T14:23:26;12.23;87.70
71088;SHT31;58747;50.674;4.616;2022-09-16T14:25:51;12.26;90.73
71088;SHT31;58747;50.674;4.616;2022-09-16T14:28:20;12.23;89.21
71088;SHT31;58747;50.674;4.616;2022-09-16T14:30:55;12.23;87.70
71088;SHT31;58747;50.674;4.616;2022-09-16T14:33:46;12.34;88.96
71088;SHT31;58747;50.674;4.616;2022-09-16T14:36:36;12.46;89.96
71088;SHT31;58747;50.674;4.616;2022-09-16T14:39:23;12.53;90.34
71088;SHT31;58747;50.674;4.616;2022-09-16T14:42:01;12.53;91.34
71088;SHT31;58747;50.674;4.616;2022-09-16T14:44:35;12.43;88.34
71088;SHT31;58747;50.674;4.616;2022-09-16T14:47:31;12.46;86.32
71088;SHT31;58747;50.674;4.616;2022-09-16T14:50:12;12.46;86.79
71088;SHT31;58747;50.674;4.616;2022-09-16T14:52:39;12.54;90.49
71088;SHT31;58747;50.674;4.616;2022-09-16T14:55:19;12.61;89.02
71088;SHT31;58747;50.674;4.616;2022-09-16T14:57:44;12.71;88.59
71088;SHT31;58747;50.674;4.616;2022-09-16T15:00:14;12.77;87.05
71088;SHT31;58747;50.674;4.616;2022-09-16T15:05:25;12.96;86.87
71088;SHT31;58747;50.674;4.616;2022-09-16T15:07:56;12.92;84.08
71088;SHT31;58747;50.674;4.616;2022-09-16T15:10:27;13.02;86.08
71088;SHT31;58747;50.674;4.616;2022-09-16T15:13:07;13.08;86.81
71088;SHT31;58747;50.674;4.616;2022-09-16T15:15:34;13.11;86.16
71088;SHT31;58747;50.674;4.616;2022-09-16T15:18:06;13.19;85.32
71088;SHT31;58747;50.674;4.616;2022-09-16T15:20:36;13.06;83.29
71088;SHT31;58747;50.674;4.616;2022-09-16T15:23:03;12.98;85.48
71088;SHT31;58747;50.674;4.616;2022-09-16T15:25:31;12.78;82.89
71088;SHT31;58747;50.674;4.616;2022-09-16T15:28:15;12.67;84.52
71088;SHT31;58747;50.674;4.616;2022-09-16T15:30:52;12.48;85.21
71088;SHT31;58747;50.674;4.616;2022-09-16T15:33:34;12.37;83.98
71088;SHT31;58747;50.674;4.616;2022-09-16T15:36:01;12.37;86.51
71088;SHT31;58747;50.674;4.616;2022-09-16T15:38:28;12.44;86.35
71088;SHT31;58747;50.674;4.616;2022-09-16T15:41:03;12.54;81.26
71088;SHT31;58747;50.674;4.616;2022-09-16T15:43:33;12.55;84.60
71088;SHT31;58747;50.674;4.616;2022-09-16T15:46:18;12.61;83.22
71088;SHT31;58747;50.674;4.616;2022-09-16T15:48:51;12.63;81.62
71088;SHT31;58747;50.674;4.616;2022-09-16T15:51:25;12.67;82.47
71088;SHT31;58747;50.674;4.616;2022-09-16T15:53:54;12.60;82.85
71088;SHT31;58747;50.674;4.616;2022-09-16T15:56:30;12.65;82.93
71088;SHT31;58747;50.674;4.616;2022-09-16T15:58:59;12.64;81.07
71088;SHT31;58747;50.674;4.616;2022-09-16T16:01:44;12.63;82.03
71088;SHT31;58747;50.674;4.616;2022-09-16T16:04:12;12.60;83.49
71088;SHT31;58747;50.674;4.616;2022-09-16T16:11:54;12.63;84.38
71088;SHT31;58747;50.674;4.616;2022-09-16T16:14:23;12.69;79.44
71088;SHT31;58747;50.674;4.616;2022-09-16T16:16:49;12.78;82.07
71088;SHT31;58747;50.674;4.616;2022-09-16T16:19:15;12.83;82.14
71088;SHT31;58747;50.674;4.616;2022-09-16T16:21:40;12.83;79.54
71088;SHT31;58747;50.674;4.616;2022-09-16T16:24:08;12.85;78.52
71088;SHT31;58747;50.674;4.616;2022-09-16T16:26:34;12.85;77.51
71088;SHT31;58747;50.674;4.616;2022-09-16T16:28:59;12.92;79.93
71088;SHT31;58747;50.674;4.616;2022-09-16T16:31:25;12.91;79.60
71088;SHT31;58747;50.674;4.616;2022-09-16T16:33:50;12.85;79.12
71088;SHT31;58747;50.674;4.616;2022-09-16T16:36:17;12.65;79.28
71088;SHT31;58747;50.674;4.616;2022-09-16T16:38:43;12.53;81.25
71088;SHT31;58747;50.674;4.616;2022-09-16T16:41:09;12.41;82.69
71088;SHT31;58747;50.674;4.616;2022-09-16T16:43:36;12.30;80.94
71088;SHT31;58747;50.674;4.616;2022-09-16T16:46:02;12.29;81.08
71088;SHT31;58747;50.674;4.616;2022-09-16T16:48:28;12.22;82.37
71088;SHT31;58747;50.674;4.616;2022-09-16T16:50:58;12.23;83.66
71088;SHT31;58747;50.674;4.616;2022-09-16T16:53:24;12.25;82.73
71088;SHT31;58747;50.674;4.616;2022-09-16T16:55:49;12.23;81.61
71088;SHT31;58747;50.674;4.616;2022-09-16T16:58:15;12.25;82.94
71088;SHT31;58747;50.674;4.616;2022-09-16T17:00:40;12.34;83.06
71088;SHT31;58747;50.674;4.616;2022-09-16T17:03:05;12.27;84.01
71088;SHT31;58747;50.674;4.616;2022-09-16T17:05:31;12.23;84.13
71088;SHT31;58747;50.674;4.616;2022-09-16T17:07:56;12.23;86.57
71088;SHT31;58747;50.674;4.616;2022-09-16T17:10:21;12.20;82.63
71088;SHT31;58747;50.674;4.616;2022-09-16T17:12:47;12.19;82.02
71088;SHT31;58747;50.674;4.616;2022-09-16T17:15:12;12.10;84.62
71088;SHT31;58747;50.674;4.616;2022-09-16T17:17:38;12.07;86.12
71088;SHT31;58747;50.674;4.616;2022-09-16T17:20:05;11.95;85.23
71088;SHT31;58747;50.674;4.616;2022-09-16T17:22:30;11.77;84.67
71088;SHT31;58747;50.674;4.616;2022-09-16T17:24:56;11.62;84.80
71088;SHT31;58747;50.674;4.616;2022-09-16T17:27:21;11.52;86.09
71088;SHT31;58747;50.674;4.616;2022-09-16T17:29:48;11.44;85.52
71088;SHT31;58747;50.674;4.616;2022-09-16T17:32:14;11.34;88.66
71088;SHT31;58747;50.674;4.616;2022-09-16T17:34:40;11.16;87.45
71088;SHT31;58747;50.674;4.616;2022-09-16T17:37:05;11.11;88.96
71088;SHT31;58747;50.674;4.616;2022-09-16T17:39:32;11.01;89.48
71088;SHT31;58747;50.674;4.616;2022-09-16T17:41:58;10.95;89.47
71088;SHT31;58747;50.674;4.616;2022-09-16T17:44:24;10.90;90.19
71088;SHT31;58747;50.674;4.616;2022-09-16T17:46:49;10.88;91.56
71088;SHT31;58747;50.674;4.616;2022-09-16T17:49:20;10.90;91.18
71088;SHT31;58747;50.674;4.616;2022-09-16T17:51:46;10.86;90.15
71088;SHT31;58747;50.674;4.616;2022-09-16T17:54:12;10.90;91.20
71088;SHT31;58747;50.674;4.616;2022-09-16T17:56:38;10.88;89.87
71088;SHT31;58747;50.674;4.616;2022-09-16T17:59:03;10.89;90.46
71088;SHT31;58747;50.674;4.616;2022-09-16T18:01:30;10.86;89.73
71088;SHT31;58747;50.674;4.616;2022-09-16T18:03:56;10.88;89.63
71088;SHT31;58747;50.674;4.616;2022-09-16T18:06:29;10.83;89.83
71088;SHT31;58747;50.674;4.616;2022-09-16T18:08:58;10.79;89.28
71088;SHT31;58747;50.674;4.616;2022-09-16T18:11:24;10.77;90.77
71088;SHT31;58747;50.674;4.616;2022-09-16T18:13:56;10.77;90.28
71088;SHT31;58747;50.674;4.616;2022-09-16T18:16:23;10.76;89.48
71088;SHT31;58747;50.674;4.616;2022-09-16T18:18:50;10.73;89.65
71088;SHT31;58747;50.674;4.616;2022-09-16T18:21:16;10.76;90.79
71088;SHT31;58747;50.674;4.616;2022-09-16T18:23:44;10.72;89.63
71088;SHT31;58747;50.674;4.616;2022-09-16T18:26:12;10.66;89.29